Quinter, KS

8:32 PM CST on February 08, 2016 (GMT -0600)
APRSWXNET | | Change Station
CLOSE
Current Station
Personal Weather Station
Location: Gove, KS
Elevation: 2540 ft
Nearby Weather Stations

Elev 2540 ft 38.93 °N, 100.40 °W | Updated 29 minutes ago

Clear
Clear
29 °F
Feels Like 22 °F
N
7
Wind Variable Wind from WNW
Gusts 10.0 mph

Today
High -- | Low -- °F
--% Chance of Precip.
Yesterday
High -- | Low -- °F
Precip. -- in
Pressure 30.33 in
Visibility 10.0 miles
Clouds Scattered Clouds 7000 ft
Windchill 22 °F
Dew Point 24 °F
Humidity 80%
Rainfall in
Snow Depth Not available.
7:40 AM 6:10 PM
New Moon, 0% visible
METAR KHLC 090153Z AUTO 28007KT 10SM SCT070 M01/M07 A3026 RMK AO2 SLP271 T10111072
Pressure 30.33 in
Visibility 10.0 miles
Clouds Scattered Clouds 7000 ft
Windchill 22 °F
Dew Point 24 °F
Humidity 80%
Rainfall in
Snow Depth Not available.
7:40 AM 6:10 PM
New Moon, 0% visible
METAR KHLC 090153Z AUTO 28007KT 10SM SCT070 M01/M07 A3026 RMK AO2 SLP271 T10111072

10-Day Weather Forecast

Almanac

Astronomy

Feb. 08, 2016 Rise Set
Actual Time
Civil Twilight
Nautical Twilight
Astronomical Twilight
Moon
Length of Visible Light
Length of Day
Tomorrow will be .
, % of the Moon is Illuminated

Today's Extremes

State Highs State Lows

Community

WunderPhotos

Upload Photos

1,891,527 photos uploaded!

WunderBlog® & News

Nearby

Air Quality

  Air Quality AQ Index Pollutant
Not available.

Snow Depth

Station Depth Elevation

Earthquake Activity

City Distance Mag. Time & Date
Minimum magnitude displayed is 2.5.

Coastal Water Temperatures

Place Temperature

Stations

Nearby Weather Stations

Station Location Temp. Windchill Dew Point Humidity Wind Precip. Elev Updated Type
                   

Watches & Warnings

There are currently no watches in effect.